createdAt,value
2019-04-20T00:02:08.309Z,12.37
2019-04-20T00:04:34.241Z,12.10
2019-04-20T00:07:02.009Z,12.43
2019-04-20T00:09:35.289Z,12.50
2019-04-20T00:12:10.737Z,11.80
2019-04-20T00:14:37.123Z,12.00
2019-04-20T00:17:05.192Z,13.53
2019-04-20T00:19:42.493Z,12.43
2019-04-20T00:22:14.881Z,11.90
2019-04-20T00:24:49.660Z,12.07
2019-04-20T00:27:37.025Z,11.77
2019-04-20T00:30:04.455Z,12.57
2019-04-20T00:32:39.966Z,12.03
2019-04-20T00:34:52.743Z,12.80
2019-04-20T00:37:23.334Z,13.53
2019-04-20T00:39:53.079Z,13.10
2019-04-20T00:42:31.151Z,12.67
2019-04-20T00:45:00.615Z,12.80
2019-04-20T00:47:37.376Z,13.37
2019-04-20T00:50:05.520Z,13.00
2019-04-20T00:52:41.408Z,12.43
2019-04-20T00:54:58.134Z,12.83
2019-04-20T00:57:39.407Z,14.00
2019-04-20T01:00:17.705Z,13.17
2019-04-20T01:02:46.683Z,13.03
2019-04-20T01:05:19.618Z,13.83
2019-04-20T01:07:49.805Z,12.47
2019-04-20T01:10:17.488Z,13.50
2019-04-20T01:12:47.528Z,13.80
2019-04-20T01:15:28.109Z,13.17
2019-04-20T01:17:48.992Z,13.67
2019-04-20T01:20:18.458Z,13.03
2019-04-20T01:22:54.633Z,12.30
2019-04-20T01:25:28.384Z,13.13
2019-04-20T01:28:07.694Z,13.20
2019-04-20T01:30:30.188Z,12.93
2019-04-20T01:33:03.483Z,12.63
2019-04-20T01:35:39.162Z,12.70
2019-04-20T01:38:12.447Z,12.67
2019-04-20T01:40:25.536Z,12.37
2019-04-20T01:42:55.344Z,12.13
2019-04-20T01:45:29.307Z,12.47
2019-04-20T01:47:59.195Z,12.07
2019-04-20T01:50:31.404Z,11.67
2019-04-20T01:53:11.485Z,11.53
2019-04-20T01:55:47.956Z,12.50
2019-04-20T01:58:25.444Z,11.33
2019-04-20T02:00:44.935Z,11.03
2019-04-20T02:03:38.603Z,11.50
2019-04-20T02:06:18.171Z,11.73
2019-04-20T02:08:44.609Z,11.33
2019-04-20T02:11:22.006Z,10.63
2019-04-20T02:13:52.904Z,11.70
2019-04-20T02:16:26.401Z,11.63
2019-04-20T02:19:05.333Z,11.63
2019-04-20T02:21:34.302Z,11.10
2019-04-20T02:23:57.275Z,11.43
2019-04-20T02:26:21.813Z,11.67
2019-04-20T02:29:18.591Z,11.50
2019-04-20T02:32:08.990Z,11.60
2019-04-20T02:34:31.586Z,12.00
2019-04-20T02:42:30.098Z,12.17
2019-04-20T02:45:01.412Z,11.80
2019-04-20T02:50:10.483Z,11.53
2019-04-20T02:52:28.763Z,11.73
2019-04-20T02:55:04.146Z,11.33
2019-04-20T02:57:34.030Z,12.03
2019-04-20T03:00:05.673Z,11.90
2019-04-20T03:02:14.728Z,12.27
2019-04-20T03:04:37.092Z,12.03
2019-04-20T03:07:15.186Z,11.60
2019-04-20T03:09:55.459Z,11.93
2019-04-20T03:12:28.632Z,12.00
2019-04-20T03:14:47.306Z,11.10
2019-04-20T03:17:29.727Z,12.27
2019-04-20T03:19:48.339Z,12.00
2019-04-20T03:22:34.992Z,12.20
2019-04-20T03:25:06.177Z,10.77
2019-04-20T03:27:29.651Z,11.30
2019-04-20T03:30:07.783Z,11.53
2019-04-20T03:33:06.745Z,11.40
2019-04-20T03:37:42.762Z,11.60
2019-04-20T03:40:05.513Z,11.40
2019-04-20T03:42:22.467Z,11.47
2019-04-20T03:44:58.429Z,10.70
2019-04-20T03:47:33.809Z,11.73
2019-04-20T03:50:18.050Z,11.30
2019-04-20T03:52:49.291Z,11.37
2019-04-20T03:55:25.899Z,11.73
2019-04-20T03:58:03.517Z,10.90
2019-04-20T04:00:41.423Z,10.97
2019-04-20T04:03:44.087Z,10.53
2019-04-20T04:05:50.714Z,10.27
2019-04-20T04:08:17.015Z,11.83
2019-04-20T04:11:00.043Z,10.87
2019-04-20T04:13:15.037Z,10.47
2019-04-20T04:15:52.263Z,9.90
2019-04-20T04:18:26.268Z,11.07
2019-04-20T04:20:56.817Z,10.83
2019-04-20T04:23:38.295Z,10.30
2019-04-20T04:28:41.056Z,10.67
2019-04-20T04:31:12.163Z,10.40
2019-04-20T04:33:58.062Z,10.50
2019-04-20T04:36:10.482Z,10.83
2019-04-20T04:38:51.725Z,10.50
2019-04-20T04:43:48.095Z,10.77
2019-04-20T04:46:00.000Z,10.63
2019-04-20T04:48:34.998Z,10.27
2019-04-20T04:51:07.209Z,10.20
2019-04-20T04:53:44.349Z,10.87
2019-04-20T04:56:07.252Z,10.03
2019-04-20T04:58:34.009Z,10.43
2019-04-20T05:01:10.890Z,10.47
2019-04-20T05:03:54.022Z,11.70
2019-04-20T05:06:25.039Z,10.30
2019-04-20T05:08:45.485Z,10.63
2019-04-20T05:11:09.115Z,10.23
2019-04-20T05:13:46.774Z,10.17
2019-04-20T05:16:27.884Z,10.50
2019-04-20T05:19:03.129Z,10.77
2019-04-20T05:21:29.828Z,10.20
2019-04-20T05:24:10.061Z,10.20
2019-04-20T05:26:47.897Z,10.53
2019-04-20T05:29:01.384Z,9.97
2019-04-20T05:31:32.776Z,9.80
2019-04-20T05:34:19.931Z,9.73
2019-04-20T05:36:44.841Z,10.40
2019-04-20T05:39:22.442Z,10.00
2019-04-20T05:41:46.772Z,10.03
2019-04-20T05:44:19.597Z,10.13
2019-04-20T05:46:59.490Z,10.60
2019-04-20T05:49:25.836Z,9.90
2019-04-20T05:51:54.427Z,10.83
2019-04-20T05:54:25.375Z,9.83
2019-04-20T05:57:03.245Z,9.10
2019-04-20T05:59:28.373Z,8.90
2019-04-20T06:02:03.624Z,9.13
2019-04-20T06:04:48.605Z,8.90
2019-04-20T06:07:05.648Z,8.90
2019-04-20T06:09:34.306Z,9.40
2019-04-20T06:12:13.076Z,8.70
2019-04-20T06:14:28.595Z,8.60
2019-04-20T06:17:15.974Z,8.93
2019-04-20T06:19:42.201Z,8.53
2019-04-20T06:22:21.757Z,8.43
2019-04-20T06:25:17.163Z,8.37
2019-04-20T06:27:42.545Z,8.57
2019-04-20T06:30:06.874Z,8.87
2019-04-20T06:33:24.257Z,8.97
2019-04-20T06:36:07.368Z,8.43
2019-04-20T06:38:35.246Z,9.03
2019-04-20T06:41:00.608Z,8.50
2019-04-20T06:43:19.717Z,8.40
2019-04-20T06:46:01.042Z,8.15
2019-04-20T06:48:29.110Z,8.43
2019-04-20T06:50:49.240Z,8.40
2019-04-20T06:53:32.374Z,7.90
2019-04-20T06:56:07.332Z,8.00
2019-04-20T07:01:03.890Z,8.58
2019-04-20T07:03:46.793Z,8.18
2019-04-20T07:06:23.257Z,8.25
2019-04-20T07:08:56.839Z,8.53
2019-04-20T07:11:14.716Z,7.87
2019-04-20T07:13:28.850Z,8.15
2019-04-20T07:16:21.391Z,8.20
2019-04-20T07:19:07.917Z,7.83
2019-04-20T07:22:12.346Z,8.68
2019-04-20T07:27:06.617Z,8.08
2019-04-20T07:29:41.102Z,8.43
2019-04-20T07:32:07.580Z,8.13
2019-04-20T07:34:38.697Z,8.20
2019-04-20T07:39:48.321Z,7.78
2019-04-20T07:42:27.212Z,7.85
2019-04-20T07:44:54.919Z,7.90
2019-04-20T07:47:29.914Z,8.65
2019-04-20T07:49:49.824Z,7.70
2019-04-20T07:52:04.007Z,8.23
2019-04-20T07:55:12.185Z,7.65
2019-04-20T07:57:24.637Z,7.58
2019-04-20T07:59:56.224Z,8.85
2019-04-20T08:02:51.726Z,8.33
2019-04-20T08:05:10.738Z,8.28
2019-04-20T08:07:39.177Z,7.78
2019-04-20T08:10:05.638Z,8.08
2019-04-20T08:13:09.297Z,8.15
2019-04-20T08:15:38.055Z,8.10
2019-04-20T08:18:04.541Z,8.05
2019-04-20T08:20:24.601Z,7.55
2019-04-20T08:22:58.658Z,8.75
2019-04-20T08:25:25.347Z,8.25
2019-04-20T08:27:59.160Z,7.95
2019-04-20T08:31:00.599Z,7.47
2019-04-20T08:33:37.984Z,7.40
2019-04-20T08:36:10.737Z,8.28
2019-04-20T08:41:07.312Z,7.67
2019-04-20T08:43:47.395Z,7.75
2019-04-20T08:46:16.061Z,7.85
2019-04-20T08:48:46.340Z,7.80
2019-04-20T08:51:12.160Z,7.30
2019-04-20T08:53:49.232Z,7.72
2019-04-20T08:56:10.897Z,7.97
2019-04-20T08:58:29.900Z,7.40
2019-04-20T09:01:03.536Z,8.13
2019-04-20T09:03:43.164Z,8.35
2019-04-20T09:06:09.818Z,7.72
2019-04-20T09:08:46.649Z,8.30
2019-04-20T09:11:21.971Z,7.00
2019-04-20T09:13:43.591Z,7.85
2019-04-20T09:16:06.768Z,7.55
2019-04-20T09:18:47.683Z,7.90
2019-04-20T09:21:23.366Z,7.53
2019-04-20T09:23:58.573Z,8.03
2019-04-20T09:26:32.332Z,7.33
2019-04-20T09:28:59.039Z,6.75
2019-04-20T09:31:35.976Z,7.60
2019-04-20T09:34:11.728Z,6.87
2019-04-20T09:36:40.785Z,7.03
2019-04-20T09:39:24.728Z,7.92
2019-04-20T09:42:06.703Z,7.28
2019-04-20T09:44:40.888Z,7.15
2019-04-20T09:47:10.037Z,6.72
2019-04-20T09:49:51.845Z,6.90
2019-04-20T09:52:25.413Z,7.53
2019-04-20T09:54:59.333Z,7.55
2019-04-20T09:57:33.290Z,7.78
2019-04-20T10:00:01.750Z,7.67
2019-04-20T10:02:21.856Z,7.62
2019-04-20T10:04:47.329Z,7.47
2019-04-20T10:07:21.668Z,7.00
2019-04-20T10:09:50.188Z,7.22
2019-04-20T10:12:19.941Z,8.05
2019-04-20T10:14:49.254Z,7.37
2019-04-20T10:17:19.846Z,7.35
2019-04-20T10:19:49.555Z,7.10
2019-04-20T10:22:18.883Z,7.47
2019-04-20T10:24:50.299Z,7.50
2019-04-20T10:27:19.206Z,7.40
2019-04-20T10:29:49.334Z,7.25
2019-04-20T10:32:25.099Z,7.22
2019-04-20T10:34:52.728Z,6.20
2019-04-20T10:37:23.985Z,7.10
2019-04-20T10:39:54.416Z,7.10
2019-04-20T10:42:24.055Z,7.42
2019-04-20T10:44:55.877Z,7.30
2019-04-20T10:47:25.282Z,6.85
2019-04-20T10:49:56.336Z,6.28
2019-04-20T10:52:36.044Z,6.62
2019-04-20T10:55:06.489Z,6.40
2019-04-20T10:57:35.983Z,5.83
2019-04-20T11:00:07.931Z,6.15
2019-04-20T11:02:39.586Z,6.25
2019-04-20T11:05:10.802Z,5.78
2019-04-20T11:07:40.799Z,6.80
2019-04-20T11:10:16.656Z,5.67
2019-04-20T11:12:42.329Z,6.08
2019-04-20T11:15:12.505Z,5.80
2019-04-20T11:17:42.005Z,6.60
2019-04-20T11:20:11.460Z,6.30
2019-04-20T11:22:42.123Z,5.85
2019-04-20T11:25:12.440Z,5.80
2019-04-20T11:27:41.844Z,6.60
2019-04-20T11:30:12.070Z,7.12
2019-04-20T11:32:42.156Z,6.45
2019-04-20T11:35:21.361Z,5.92
2019-04-20T11:37:42.951Z,6.03
2019-04-20T11:40:14.923Z,6.30
2019-04-20T11:42:45.567Z,6.72
2019-04-20T11:45:16.277Z,7.60
2019-04-20T11:47:45.627Z,7.25
2019-04-20T11:50:15.618Z,6.80
2019-04-20T11:52:48.161Z,6.85
2019-04-20T11:55:16.106Z,6.45
2019-04-20T11:57:45.434Z,7.08
2019-04-20T12:00:19.170Z,7.80
2019-04-20T12:02:54.226Z,6.80
2019-04-20T12:05:33.355Z,6.97
2019-04-20T12:08:23.413Z,6.72
2019-04-20T12:10:56.494Z,6.45
2019-04-20T12:13:24.833Z,6.87
2019-04-20T12:15:54.297Z,7.45
2019-04-20T12:18:23.617Z,7.85
2019-04-20T12:20:54.692Z,6.90
2019-04-20T12:23:24.460Z,7.67
2019-04-20T12:25:54.385Z,6.97
2019-04-20T12:28:25.269Z,7.95
2019-04-20T12:30:58.371Z,7.92
2019-04-20T12:33:26.431Z,7.83
2019-04-20T12:35:56.330Z,8.15
2019-04-20T12:38:25.782Z,7.95
2019-04-20T12:40:55.692Z,7.35
2019-04-20T12:43:25.547Z,7.60
2019-04-20T12:45:57.962Z,7.20
2019-04-20T12:48:27.529Z,7.40
2019-04-20T12:50:57.512Z,8.08
2019-04-20T12:53:26.905Z,7.60
2019-04-20T12:55:56.810Z,8.28
2019-04-20T12:58:28.424Z,8.15
2019-04-20T13:00:58.869Z,7.78
2019-04-20T13:03:28.194Z,8.30
2019-04-20T13:05:58.197Z,7.62
2019-04-20T13:08:33.853Z,7.55
2019-04-20T13:11:02.436Z,7.58
2019-04-20T13:13:46.212Z,7.60
2019-04-20T13:16:26.176Z,8.03
2019-04-20T13:18:57.268Z,8.40
2019-04-20T13:21:27.109Z,8.73
2019-04-20T13:23:56.629Z,7.92
2019-04-20T13:26:27.027Z,7.92
2019-04-20T13:28:57.076Z,7.70
2019-04-20T13:31:26.584Z,8.70
2019-04-20T13:33:57.149Z,8.10
2019-04-20T13:36:26.722Z,8.20
2019-04-20T13:38:56.369Z,7.28
2019-04-20T13:41:25.846Z,7.75
2019-04-20T13:43:57.868Z,8.13
2019-04-20T13:46:27.153Z,7.47
2019-04-20T13:48:57.323Z,7.17
2019-04-20T13:51:26.719Z,6.97
2019-04-20T13:53:57.325Z,7.10
2019-04-20T13:56:28.008Z,11.45
2019-04-20T13:58:59.178Z,8.20
2019-04-20T14:01:36.974Z,8.63
2019-04-20T14:04:12.747Z,9.20
2019-04-20T14:06:43.552Z,7.33
2019-04-20T14:09:13.075Z,6.95
2019-04-20T14:11:43.415Z,7.83
2019-04-20T14:14:13.164Z,7.45
2019-04-20T14:16:43.075Z,7.58
2019-04-20T14:19:14.261Z,9.48
2019-04-20T14:21:44.052Z,7.58
2019-04-20T14:24:14.949Z,19.42
2019-04-20T14:26:45.757Z,9.53
2019-04-20T14:29:16.989Z,7.12
2019-04-20T14:31:46.404Z,6.97
2019-04-20T14:34:17.102Z,7.65
2019-04-20T14:36:46.798Z,7.67
2019-04-20T14:39:18.348Z,6.67
2019-04-20T14:41:48.645Z,9.65
2019-04-20T14:44:19.484Z,6.97
2019-04-20T14:46:49.736Z,7.08
2019-04-20T14:49:19.136Z,6.37
2019-04-20T14:51:49.885Z,5.97
2019-04-20T14:54:19.356Z,6.80
2019-04-20T14:56:49.576Z,6.62
2019-04-20T14:59:33.694Z,6.55
2019-04-20T15:02:04.720Z,6.47
2019-04-20T15:04:34.702Z,6.67
2019-04-20T15:07:04.640Z,6.37
2019-04-20T15:09:37.551Z,6.22
2019-04-20T15:12:06.792Z,6.03
2019-04-20T15:14:36.751Z,5.97
2019-04-20T15:17:06.829Z,6.15
2019-04-20T15:19:39.204Z,6.42
2019-04-20T15:22:27.369Z,6.35
2019-04-20T15:24:57.713Z,5.50
2019-04-20T15:27:28.194Z,6.33
2019-04-20T15:29:58.128Z,6.90
2019-04-20T15:32:27.448Z,5.83
2019-04-20T15:34:57.172Z,5.53
2019-04-20T15:37:26.685Z,5.67
2019-04-20T15:39:57.127Z,5.37
2019-04-20T15:42:27.633Z,5.87
2019-04-20T15:44:57.725Z,5.60
2019-04-20T15:47:28.177Z,5.37
2019-04-20T15:49:58.071Z,5.72
2019-04-20T15:52:33.572Z,5.58
2019-04-20T15:55:03.096Z,5.70
2019-04-20T15:57:31.232Z,5.03
2019-04-20T16:00:00.542Z,5.17
2019-04-20T16:02:31.659Z,5.87
2019-04-20T16:05:10.133Z,5.17
2019-04-20T16:07:48.554Z,5.65
2019-04-20T16:10:10.755Z,5.45
2019-04-20T16:12:40.731Z,5.05
2019-04-20T16:15:11.382Z,4.33
2019-04-20T16:17:45.386Z,4.30
2019-04-20T16:20:16.938Z,3.92
2019-04-20T16:22:42.955Z,3.75
2019-04-20T16:25:15.035Z,3.40
2019-04-20T16:27:45.597Z,3.50
2019-04-20T16:30:15.765Z,3.22
2019-04-20T16:32:45.178Z,2.80
2019-04-20T16:35:16.210Z,3.05
2019-04-20T16:37:46.511Z,3.12
2019-04-20T16:40:17.688Z,2.95
2019-04-20T16:42:48.013Z,2.50
2019-04-20T16:45:17.503Z,2.47
2019-04-20T16:47:48.116Z,4.10
2019-04-20T16:50:17.671Z,3.67
2019-04-20T16:52:47.018Z,2.87
2019-04-20T16:55:16.672Z,4.85
2019-04-20T16:57:49.475Z,3.27
2019-04-20T17:00:19.752Z,3.85
2019-04-20T17:02:50.123Z,2.83
2019-04-20T17:05:20.950Z,3.27
2019-04-20T17:07:55.388Z,2.50
2019-04-20T17:10:25.020Z,6.83
2019-04-20T17:12:55.608Z,2.50
2019-04-20T17:15:25.568Z,2.30
2019-04-20T17:17:56.996Z,2.08
2019-04-20T17:20:27.295Z,4.58
2019-04-20T17:22:58.202Z,2.65
2019-04-20T17:25:29.787Z,3.00
2019-04-20T17:28:07.221Z,4.80
2019-04-20T17:30:42.152Z,4.25
2019-04-20T17:33:29.941Z,8.15
2019-04-20T17:36:08.443Z,11.75
2019-04-20T17:38:37.512Z,10.18
2019-04-20T17:41:16.677Z,7.67
2019-04-20T17:43:50.682Z,6.70
2019-04-20T17:46:12.127Z,6.50
2019-04-20T17:48:45.118Z,5.03
2019-04-20T17:51:28.802Z,5.15
2019-04-20T17:53:49.049Z,5.30
2019-04-20T17:56:12.158Z,4.60
2019-04-20T17:58:41.655Z,4.10
2019-04-20T18:01:41.028Z,3.70
2019-04-20T18:04:43.006Z,4.58
2019-04-20T18:06:57.940Z,4.03
2019-04-20T18:09:40.288Z,3.27
2019-04-20T18:11:52.088Z,3.60
2019-04-20T18:14:40.216Z,3.47
2019-04-20T18:17:13.862Z,3.85
2019-04-20T18:19:38.822Z,3.80
2019-04-20T18:28:13.644Z,3.55
2019-04-20T18:30:44.573Z,3.58
2019-04-20T18:33:05.471Z,3.50
2019-04-20T18:35:40.452Z,3.83
2019-04-20T18:38:09.739Z,3.77
2019-04-20T18:40:48.347Z,5.03
2019-04-20T18:43:15.007Z,4.70
2019-04-20T18:45:58.221Z,5.17
2019-04-20T18:48:32.099Z,5.22
2019-04-20T18:50:44.226Z,5.30
2019-04-20T18:53:19.250Z,5.17
2019-04-20T18:55:49.556Z,4.78
2019-04-20T18:58:15.470Z,5.70
2019-04-20T19:00:51.143Z,5.80
2019-04-20T19:03:25.622Z,5.90
2019-04-20T19:05:47.607Z,6.40
2019-04-20T19:08:18.937Z,7.13
2019-04-20T19:10:57.859Z,7.03
2019-04-20T19:13:29.685Z,7.23
2019-04-20T19:16:06.959Z,7.83
2019-04-20T19:18:49.102Z,7.37
2019-04-20T19:21:05.184Z,7.97
2019-04-20T19:23:36.589Z,7.23
2019-04-20T19:26:11.941Z,7.97
2019-04-20T19:28:44.228Z,7.77
2019-04-20T19:31:28.006Z,8.40
2019-04-20T19:34:02.099Z,8.23
2019-04-20T19:36:19.852Z,7.90
2019-04-20T19:38:52.358Z,8.03
2019-04-20T19:41:26.411Z,8.60
2019-04-20T19:43:54.957Z,10.70
2019-04-20T19:46:52.346Z,10.47
2019-04-20T19:48:56.692Z,11.13
2019-04-20T19:51:43.024Z,10.03
2019-04-20T19:54:13.213Z,10.70
2019-04-20T19:56:40.716Z,10.53
2019-04-20T19:59:03.037Z,9.67
2019-04-20T20:01:23.905Z,9.53
2019-04-20T20:03:57.606Z,10.67
2019-04-20T20:06:34.272Z,9.80
2019-04-20T20:09:00.373Z,9.63
2019-04-20T20:11:32.354Z,10.77
2019-04-20T20:13:59.214Z,10.63
2019-04-20T20:16:44.025Z,11.10
2019-04-20T20:19:08.430Z,10.27
2019-04-20T20:21:45.739Z,11.43
2019-04-20T20:24:04.074Z,11.13
2019-04-20T20:26:38.721Z,11.00
2019-04-20T20:29:14.564Z,12.00
2019-04-20T20:31:53.044Z,11.43
2019-04-20T20:34:17.106Z,12.97
2019-04-20T20:36:49.794Z,12.00
2019-04-20T20:39:16.724Z,13.53
2019-04-20T20:41:53.969Z,13.03
2019-04-20T20:44:27.677Z,13.20
2019-04-20T20:46:55.011Z,13.40
2019-04-20T20:49:40.244Z,13.60
2019-04-20T20:52:09.791Z,14.30
2019-04-20T20:54:36.693Z,17.90
2019-04-20T20:56:59.438Z,20.50
2019-04-20T20:59:35.824Z,23.90
2019-04-20T21:02:04.788Z,29.13
2019-04-20T21:04:24.097Z,31.73
2019-04-20T21:06:54.794Z,21.50
2019-04-20T21:09:25.658Z,17.53
2019-04-20T21:12:01.814Z,14.40
2019-04-20T21:14:29.911Z,14.00
2019-04-20T21:17:05.233Z,14.03
2019-04-20T21:19:48.054Z,13.73
2019-04-20T21:22:06.896Z,13.97
2019-04-20T21:24:35.822Z,17.17
2019-04-20T21:27:07.776Z,17.27
2019-04-20T21:29:43.512Z,17.40
2019-04-20T21:32:12.509Z,17.63
2019-04-20T21:34:43.284Z,17.93
2019-04-20T21:37:12.719Z,18.00
2019-04-20T21:39:46.538Z,17.43
2019-04-20T21:42:15.794Z,18.67
2019-04-20T21:44:45.344Z,18.47
2019-04-20T21:47:15.629Z,17.87
2019-04-20T21:49:54.080Z,18.20
2019-04-20T21:52:23.344Z,18.40
2019-04-20T21:54:47.775Z,17.97
2019-04-20T21:57:18.154Z,17.97
2019-04-20T21:59:50.904Z,18.30
2019-04-20T22:02:24.633Z,18.40
2019-04-20T22:04:49.721Z,18.07
2019-04-20T22:07:19.049Z,18.70
2019-04-20T22:09:51.631Z,27.47
2019-04-20T22:12:20.246Z,24.37
2019-04-20T22:14:58.987Z,24.47
2019-04-20T22:17:28.492Z,24.63
2019-04-20T22:20:03.778Z,22.23
2019-04-20T22:22:44.175Z,21.27
2019-04-20T22:25:08.046Z,19.57
2019-04-20T22:27:30.039Z,20.50
2019-04-20T22:29:56.177Z,19.70
2019-04-20T22:32:27.991Z,18.60
2019-04-20T22:35:03.200Z,19.13
2019-04-20T22:37:31.666Z,18.97
2019-04-20T22:40:01.245Z,19.60
2019-04-20T22:42:37.836Z,20.53
2019-04-20T22:45:07.304Z,19.93
2019-04-20T22:47:34.406Z,19.40
2019-04-20T22:50:21.573Z,19.50
2019-04-20T22:52:44.344Z,20.20
2019-04-20T22:55:47.301Z,18.97
2019-04-20T22:57:53.650Z,19.27
2019-04-20T23:00:16.893Z,19.83
2019-04-20T23:02:46.950Z,18.97
2019-04-20T23:05:16.376Z,19.47
2019-04-20T23:07:46.620Z,19.93
2019-04-20T23:10:18.194Z,20.73
2019-04-20T23:12:51.382Z,20.23
2019-04-20T23:15:18.449Z,20.70
2019-04-20T23:17:50.451Z,21.50
2019-04-20T23:20:25.192Z,20.80
2019-04-20T23:22:51.340Z,21.07
2019-04-20T23:25:20.984Z,20.97
2019-04-20T23:27:51.267Z,21.17
2019-04-20T23:30:27.103Z,20.93
2019-04-20T23:32:53.908Z,21.60
2019-04-20T23:35:26.244Z,21.87
2019-04-20T23:38:01.241Z,21.60
2019-04-20T23:40:27.685Z,21.37
2019-04-20T23:42:59.898Z,21.73
2019-04-20T23:45:38.850Z,22.87
2019-04-20T23:48:10.164Z,23.63
2019-04-20T23:50:54.200Z,24.40
2019-04-20T23:53:28.512Z,22.93
2019-04-20T23:55:41.703Z,25.10
2019-04-20T23:58:12.950Z,24.27
